sensor_id;sensor_type;location;lat;lon;timestamp;P1;durP1;ratioP1;P2;durP2;ratioP2
29838;SDS011;18669;53.356;-1.464;2023-03-23T00:00:37;2.38;;;0.47;;
29838;SDS011;18669;53.356;-1.464;2023-03-23T00:03:23;2.55;;;0.73;;
29838;SDS011;18669;53.356;-1.464;2023-03-23T00:06:12;1.80;;;0.82;;
29838;SDS011;18669;53.356;-1.464;2023-03-23T00:09:01;3.85;;;0.90;;
29838;SDS011;18669;53.356;-1.464;2023-03-23T00:11:47;1.77;;;0.70;;
29838;SDS011;18669;53.356;-1.464;2023-03-23T00:14:32;1.98;;;0.93;;
29838;SDS011;18669;53.356;-1.464;2023-03-23T00:17:26;3.30;;;0.90;;
29838;SDS011;18669;53.356;-1.464;2023-03-23T00:20:11;4.13;;;0.52;;
29838;SDS011;18669;53.356;-1.464;2023-03-23T00:22:56;5.50;;;1.00;;
29838;SDS011;18669;53.356;-1.464;2023-03-23T00:25:45;9.82;;;1.58;;
29838;SDS011;18669;53.356;-1.464;2023-03-23T00:28:31;5.90;;;1.25;;
29838;SDS011;18669;53.356;-1.464;2023-03-23T00:31:16;4.65;;;0.98;;
29838;SDS011;18669;53.356;-1.464;2023-03-23T00:34:02;3.92;;;1.17;;
29838;SDS011;18669;53.356;-1.464;2023-03-23T00:36:49;6.53;;;1.00;;
29838;SDS011;18669;53.356;-1.464;2023-03-23T00:39:37;9.60;;;1.23;;
29838;SDS011;18669;53.356;-1.464;2023-03-23T00:42:22;4.72;;;0.98;;
29838;SDS011;18669;53.356;-1.464;2023-03-23T00:45:08;4.05;;;1.00;;
29838;SDS011;18669;53.356;-1.464;2023-03-23T00:47:54;5.22;;;1.10;;
29838;SDS011;18669;53.356;-1.464;2023-03-23T00:50:46;8.68;;;1.55;;
29838;SDS011;18669;53.356;-1.464;2023-03-23T00:53:32;3.40;;;0.90;;
29838;SDS011;18669;53.356;-1.464;2023-03-23T00:56:17;5.35;;;0.90;;
29838;SDS011;18669;53.356;-1.464;2023-03-23T00:59:02;5.20;;;1.33;;
29838;SDS011;18669;53.356;-1.464;2023-03-23T01:01:48;5.78;;;1.85;;
29838;SDS011;18669;53.356;-1.464;2023-03-23T01:04:33;5.50;;;1.00;;
29838;SDS011;18669;53.356;-1.464;2023-03-23T01:07:21;4.72;;;1.30;;
29838;SDS011;18669;53.356;-1.464;2023-03-23T01:10:07;6.30;;;1.50;;
29838;SDS011;18669;53.356;-1.464;2023-03-23T01:12:52;8.05;;;1.33;;
29838;SDS011;18669;53.356;-1.464;2023-03-23T01:15:37;10.10;;;1.30;;
29838;SDS011;18669;53.356;-1.464;2023-03-23T01:18:23;10.05;;;1.55;;
29838;SDS011;18669;53.356;-1.464;2023-03-23T01:21:09;8.88;;;1.17;;
29838;SDS011;18669;53.356;-1.464;2023-03-23T01:26:40;5.70;;;1.48;;
29838;SDS011;18669;53.356;-1.464;2023-03-23T01:29:24;4.20;;;0.90;;
29838;SDS011;18669;53.356;-1.464;2023-03-23T01:32:10;6.95;;;1.23;;
29838;SDS011;18669;53.356;-1.464;2023-03-23T01:34:55;6.47;;;1.40;;
29838;SDS011;18669;53.356;-1.464;2023-03-23T01:37:39;3.45;;;1.20;;
29838;SDS011;18669;53.356;-1.464;2023-03-23T01:40:26;7.13;;;1.38;;
29838;SDS011;18669;53.356;-1.464;2023-03-23T01:43:13;9.50;;;1.27;;
29838;SDS011;18669;53.356;-1.464;2023-03-23T01:45:59;6.70;;;1.08;;
29838;SDS011;18669;53.356;-1.464;2023-03-23T01:48:44;3.00;;;1.02;;
29838;SDS011;18669;53.356;-1.464;2023-03-23T01:51:29;6.70;;;1.35;;
29838;SDS011;18669;53.356;-1.464;2023-03-23T01:54:15;8.40;;;1.20;;
29838;SDS011;18669;53.356;-1.464;2023-03-23T01:57:06;8.55;;;1.10;;
29838;SDS011;18669;53.356;-1.464;2023-03-23T01:59:53;4.05;;;1.00;;
29838;SDS011;18669;53.356;-1.464;2023-03-23T02:02:43;6.80;;;1.27;;
29838;SDS011;18669;53.356;-1.464;2023-03-23T02:05:32;8.13;;;0.98;;
29838;SDS011;18669;53.356;-1.464;2023-03-23T02:08:21;10.10;;;1.10;;
29838;SDS011;18669;53.356;-1.464;2023-03-23T02:11:17;6.03;;;1.17;;
29838;SDS011;18669;53.356;-1.464;2023-03-23T02:14:03;9.00;;;1.27;;
29838;SDS011;18669;53.356;-1.464;2023-03-23T02:35:27;10.52;;;1.60;;
29838;SDS011;18669;53.356;-1.464;2023-03-23T02:38:16;6.53;;;1.30;;
29838;SDS011;18669;53.356;-1.464;2023-03-23T02:41:05;9.00;;;1.50;;
29838;SDS011;18669;53.356;-1.464;2023-03-23T02:43:52;6.93;;;0.90;;
29838;SDS011;18669;53.356;-1.464;2023-03-23T02:46:37;6.50;;;1.60;;
29838;SDS011;18669;53.356;-1.464;2023-03-23T02:49:25;9.40;;;1.25;;
29838;SDS011;18669;53.356;-1.464;2023-03-23T02:52:14;9.02;;;1.48;;
29838;SDS011;18669;53.356;-1.464;2023-03-23T02:55:05;4.50;;;0.85;;
29838;SDS011;18669;53.356;-1.464;2023-03-23T02:57:52;13.52;;;1.98;;
29838;SDS011;18669;53.356;-1.464;2023-03-23T03:00:38;13.38;;;1.27;;
29838;SDS011;18669;53.356;-1.464;2023-03-23T03:03:23;10.95;;;1.58;;
29838;SDS011;18669;53.356;-1.464;2023-03-23T03:09:22;5.53;;;1.40;;
29838;SDS011;18669;53.356;-1.464;2023-03-23T03:15:50;10.68;;;1.30;;
29838;SDS011;18669;53.356;-1.464;2023-03-23T03:21:48;7.00;;;1.33;;
29838;SDS011;18669;53.356;-1.464;2023-03-23T03:27:21;10.20;;;1.45;;
29838;SDS011;18669;53.356;-1.464;2023-03-23T03:30:08;3.90;;;1.10;;
29838;SDS011;18669;53.356;-1.464;2023-03-23T03:32:56;11.43;;;2.00;;
29838;SDS011;18669;53.356;-1.464;2023-03-23T03:35:44;13.93;;;1.80;;
29838;SDS011;18669;53.356;-1.464;2023-03-23T03:38:29;16.17;;;1.42;;
29838;SDS011;18669;53.356;-1.464;2023-03-23T03:41:26;11.23;;;1.48;;
29838;SDS011;18669;53.356;-1.464;2023-03-23T03:44:11;11.00;;;1.75;;
29838;SDS011;18669;53.356;-1.464;2023-03-23T03:46:56;15.55;;;1.33;;
29838;SDS011;18669;53.356;-1.464;2023-03-23T03:49:41;9.52;;;1.30;;
29838;SDS011;18669;53.356;-1.464;2023-03-23T03:52:26;11.75;;;1.58;;
29838;SDS011;18669;53.356;-1.464;2023-03-23T03:55:11;8.43;;;1.60;;
29838;SDS011;18669;53.356;-1.464;2023-03-23T03:57:56;11.25;;;1.67;;
29838;SDS011;18669;53.356;-1.464;2023-03-23T04:00:42;13.27;;;1.80;;
29838;SDS011;18669;53.356;-1.464;2023-03-23T04:03:27;5.95;;;1.30;;
29838;SDS011;18669;53.356;-1.464;2023-03-23T04:06:12;7.40;;;1.60;;
29838;SDS011;18669;53.356;-1.464;2023-03-23T04:08:57;13.52;;;1.73;;
29838;SDS011;18669;53.356;-1.464;2023-03-23T04:11:43;13.93;;;2.07;;
29838;SDS011;18669;53.356;-1.464;2023-03-23T04:14:28;7.93;;;2.00;;
29838;SDS011;18669;53.356;-1.464;2023-03-23T04:17:12;14.02;;;2.25;;
29838;SDS011;18669;53.356;-1.464;2023-03-23T04:19:59;11.20;;;2.50;;
29838;SDS011;18669;53.356;-1.464;2023-03-23T04:22:44;13.40;;;2.47;;
29838;SDS011;18669;53.356;-1.464;2023-03-23T04:25:33;10.05;;;1.48;;
29838;SDS011;18669;53.356;-1.464;2023-03-23T04:28:18;14.73;;;2.28;;
29838;SDS011;18669;53.356;-1.464;2023-03-23T04:31:07;7.63;;;1.30;;
29838;SDS011;18669;53.356;-1.464;2023-03-23T04:33:53;13.43;;;1.60;;
29838;SDS011;18669;53.356;-1.464;2023-03-23T04:36:38;18.13;;;2.25;;
29838;SDS011;18669;53.356;-1.464;2023-03-23T04:39:23;11.38;;;1.95;;
29838;SDS011;18669;53.356;-1.464;2023-03-23T04:42:08;22.55;;;2.63;;
29838;SDS011;18669;53.356;-1.464;2023-03-23T04:44:53;8.80;;;1.63;;
29838;SDS011;18669;53.356;-1.464;2023-03-23T04:47:40;11.75;;;1.95;;
29838;SDS011;18669;53.356;-1.464;2023-03-23T04:50:30;14.95;;;1.83;;
29838;SDS011;18669;53.356;-1.464;2023-03-23T04:53:16;15.32;;;1.98;;
29838;SDS011;18669;53.356;-1.464;2023-03-23T04:56:02;19.75;;;2.28;;
29838;SDS011;18669;53.356;-1.464;2023-03-23T04:58:47;14.02;;;1.88;;
29838;SDS011;18669;53.356;-1.464;2023-03-23T05:01:32;13.00;;;1.95;;
29838;SDS011;18669;53.356;-1.464;2023-03-23T05:04:18;17.03;;;2.03;;
29838;SDS011;18669;53.356;-1.464;2023-03-23T05:07:03;12.68;;;2.05;;
29838;SDS011;18669;53.356;-1.464;2023-03-23T05:09:48;25.38;;;2.05;;
29838;SDS011;18669;53.356;-1.464;2023-03-23T05:12:33;18.88;;;2.35;;
29838;SDS011;18669;53.356;-1.464;2023-03-23T05:15:18;13.05;;;1.80;;
29838;SDS011;18669;53.356;-1.464;2023-03-23T05:18:03;15.68;;;2.38;;
29838;SDS011;18669;53.356;-1.464;2023-03-23T05:20:48;12.35;;;2.30;;
29838;SDS011;18669;53.356;-1.464;2023-03-23T05:23:36;18.50;;;1.85;;
29838;SDS011;18669;53.356;-1.464;2023-03-23T05:26:22;18.38;;;2.88;;
29838;SDS011;18669;53.356;-1.464;2023-03-23T05:29:09;15.65;;;2.53;;
29838;SDS011;18669;53.356;-1.464;2023-03-23T05:31:55;12.10;;;2.30;;
29838;SDS011;18669;53.356;-1.464;2023-03-23T05:34:43;13.45;;;1.77;;
29838;SDS011;18669;53.356;-1.464;2023-03-23T05:37:28;18.40;;;2.28;;
29838;SDS011;18669;53.356;-1.464;2023-03-23T05:40:16;12.60;;;2.08;;
29838;SDS011;18669;53.356;-1.464;2023-03-23T05:43:01;16.33;;;2.00;;
29838;SDS011;18669;53.356;-1.464;2023-03-23T05:45:46;12.02;;;1.95;;
29838;SDS011;18669;53.356;-1.464;2023-03-23T05:48:31;19.10;;;2.55;;
29838;SDS011;18669;53.356;-1.464;2023-03-23T05:51:16;17.35;;;2.60;;
29838;SDS011;18669;53.356;-1.464;2023-03-23T05:54:01;21.00;;;3.28;;
29838;SDS011;18669;53.356;-1.464;2023-03-23T05:56:46;17.27;;;2.10;;
29838;SDS011;18669;53.356;-1.464;2023-03-23T05:59:33;11.52;;;2.30;;
29838;SDS011;18669;53.356;-1.464;2023-03-23T06:02:18;21.17;;;2.13;;
29838;SDS011;18669;53.356;-1.464;2023-03-23T06:05:03;14.48;;;2.35;;
29838;SDS011;18669;53.356;-1.464;2023-03-23T06:07:48;19.23;;;2.42;;
29838;SDS011;18669;53.356;-1.464;2023-03-23T06:10:33;13.45;;;1.92;;
29838;SDS011;18669;53.356;-1.464;2023-03-23T06:13:20;13.77;;;1.88;;
29838;SDS011;18669;53.356;-1.464;2023-03-23T06:16:07;16.48;;;1.92;;
29838;SDS011;18669;53.356;-1.464;2023-03-23T06:18:52;11.48;;;2.17;;
29838;SDS011;18669;53.356;-1.464;2023-03-23T06:21:38;24.48;;;2.45;;
29838;SDS011;18669;53.356;-1.464;2023-03-23T06:24:22;7.00;;;1.73;;
29838;SDS011;18669;53.356;-1.464;2023-03-23T06:27:07;18.58;;;3.13;;
29838;SDS011;18669;53.356;-1.464;2023-03-23T06:29:54;18.02;;;3.38;;
29838;SDS011;18669;53.356;-1.464;2023-03-23T06:32:41;25.63;;;3.35;;
29838;SDS011;18669;53.356;-1.464;2023-03-23T06:35:26;17.65;;;2.50;;
29838;SDS011;18669;53.356;-1.464;2023-03-23T06:38:11;16.23;;;3.08;;
29838;SDS011;18669;53.356;-1.464;2023-03-23T06:40:56;16.75;;;2.13;;
29838;SDS011;18669;53.356;-1.464;2023-03-23T06:43:42;16.98;;;2.90;;
29838;SDS011;18669;53.356;-1.464;2023-03-23T06:46:28;10.52;;;2.10;;
29838;SDS011;18669;53.356;-1.464;2023-03-23T06:49:13;15.93;;;2.25;;
29838;SDS011;18669;53.356;-1.464;2023-03-23T06:51:58;17.40;;;2.42;;
29838;SDS011;18669;53.356;-1.464;2023-03-23T06:54:44;15.25;;;2.70;;
29838;SDS011;18669;53.356;-1.464;2023-03-23T06:57:29;19.08;;;2.83;;
29838;SDS011;18669;53.356;-1.464;2023-03-23T07:00:14;15.93;;;2.47;;
29838;SDS011;18669;53.356;-1.464;2023-03-23T07:02:59;15.52;;;2.83;;
29838;SDS011;18669;53.356;-1.464;2023-03-23T07:05:45;22.85;;;2.75;;
29838;SDS011;18669;53.356;-1.464;2023-03-23T07:08:31;17.42;;;2.88;;
29838;SDS011;18669;53.356;-1.464;2023-03-23T07:11:16;13.10;;;3.47;;
29838;SDS011;18669;53.356;-1.464;2023-03-23T07:14:01;23.92;;;3.28;;
29838;SDS011;18669;53.356;-1.464;2023-03-23T07:16:46;16.30;;;2.65;;
29838;SDS011;18669;53.356;-1.464;2023-03-23T07:19:31;29.85;;;3.42;;
29838;SDS011;18669;53.356;-1.464;2023-03-23T07:22:16;15.93;;;3.15;;
29838;SDS011;18669;53.356;-1.464;2023-03-23T07:25:00;24.85;;;3.17;;
29838;SDS011;18669;53.356;-1.464;2023-03-23T07:27:45;18.10;;;2.63;;
29838;SDS011;18669;53.356;-1.464;2023-03-23T07:30:30;24.10;;;3.70;;
29838;SDS011;18669;53.356;-1.464;2023-03-23T07:33:15;18.38;;;3.05;;
29838;SDS011;18669;53.356;-1.464;2023-03-23T07:36:01;15.32;;;2.42;;
29838;SDS011;18669;53.356;-1.464;2023-03-23T07:38:46;29.30;;;3.47;;
29838;SDS011;18669;53.356;-1.464;2023-03-23T07:41:32;17.55;;;2.72;;
29838;SDS011;18669;53.356;-1.464;2023-03-23T07:44:17;23.92;;;2.90;;
29838;SDS011;18669;53.356;-1.464;2023-03-23T07:47:02;15.93;;;2.53;;
29838;SDS011;18669;53.356;-1.464;2023-03-23T07:49:47;17.95;;;2.92;;
29838;SDS011;18669;53.356;-1.464;2023-03-23T07:52:32;22.50;;;3.22;;
29838;SDS011;18669;53.356;-1.464;2023-03-23T07:55:18;18.50;;;2.90;;
29838;SDS011;18669;53.356;-1.464;2023-03-23T07:58:03;25.30;;;3.10;;
29838;SDS011;18669;53.356;-1.464;2023-03-23T08:00:47;22.00;;;3.10;;
29838;SDS011;18669;53.356;-1.464;2023-03-23T08:03:33;18.45;;;3.08;;
29838;SDS011;18669;53.356;-1.464;2023-03-23T08:06:18;20.73;;;4.18;;
29838;SDS011;18669;53.356;-1.464;2023-03-23T08:09:03;21.77;;;2.83;;
29838;SDS011;18669;53.356;-1.464;2023-03-23T08:11:51;20.05;;;2.90;;
29838;SDS011;18669;53.356;-1.464;2023-03-23T08:14:36;15.27;;;2.53;;
29838;SDS011;18669;53.356;-1.464;2023-03-23T08:17:21;21.77;;;3.15;;
29838;SDS011;18669;53.356;-1.464;2023-03-23T08:20:06;11.32;;;2.20;;
29838;SDS011;18669;53.356;-1.464;2023-03-23T08:22:57;17.05;;;2.90;;
29838;SDS011;18669;53.356;-1.464;2023-03-23T08:25:43;13.40;;;2.33;;
29838;SDS011;18669;53.356;-1.464;2023-03-23T08:28:28;10.23;;;2.40;;
29838;SDS011;18669;53.356;-1.464;2023-03-23T08:31:13;19.95;;;2.60;;
29838;SDS011;18669;53.356;-1.464;2023-03-23T08:33:59;12.80;;;2.45;;
29838;SDS011;18669;53.356;-1.464;2023-03-23T08:36:43;15.02;;;2.92;;
29838;SDS011;18669;53.356;-1.464;2023-03-23T08:39:30;12.10;;;2.83;;
29838;SDS011;18669;53.356;-1.464;2023-03-23T08:42:16;16.77;;;2.83;;
29838;SDS011;18669;53.356;-1.464;2023-03-23T08:45:00;17.48;;;2.75;;
29838;SDS011;18669;53.356;-1.464;2023-03-23T08:47:45;15.65;;;2.65;;
29838;SDS011;18669;53.356;-1.464;2023-03-23T08:50:34;21.92;;;3.55;;
29838;SDS011;18669;53.356;-1.464;2023-03-23T08:53:19;19.73;;;2.47;;
29838;SDS011;18669;53.356;-1.464;2023-03-23T08:56:07;12.38;;;2.78;;
29838;SDS011;18669;53.356;-1.464;2023-03-23T08:58:54;22.05;;;2.75;;
29838;SDS011;18669;53.356;-1.464;2023-03-23T09:01:38;17.98;;;2.78;;
29838;SDS011;18669;53.356;-1.464;2023-03-23T09:04:23;14.55;;;3.20;;
29838;SDS011;18669;53.356;-1.464;2023-03-23T09:07:09;23.63;;;3.40;;
29838;SDS011;18669;53.356;-1.464;2023-03-23T09:09:56;15.13;;;2.30;;
29838;SDS011;18669;53.356;-1.464;2023-03-23T09:12:41;16.00;;;2.58;;
29838;SDS011;18669;53.356;-1.464;2023-03-23T09:15:27;19.30;;;2.97;;
29838;SDS011;18669;53.356;-1.464;2023-03-23T09:18:12;15.43;;;2.85;;
29838;SDS011;18669;53.356;-1.464;2023-03-23T09:20:58;10.55;;;2.45;;
29838;SDS011;18669;53.356;-1.464;2023-03-23T09:23:43;9.70;;;2.43;;
29838;SDS011;18669;53.356;-1.464;2023-03-23T09:26:30;11.23;;;2.33;;
29838;SDS011;18669;53.356;-1.464;2023-03-23T09:29:15;9.38;;;2.33;;
29838;SDS011;18669;53.356;-1.464;2023-03-23T09:32:00;13.23;;;2.72;;
29838;SDS011;18669;53.356;-1.464;2023-03-23T09:34:45;15.82;;;2.53;;
29838;SDS011;18669;53.356;-1.464;2023-03-23T09:37:30;16.23;;;2.70;;
29838;SDS011;18669;53.356;-1.464;2023-03-23T09:40:22;9.98;;;2.28;;
29838;SDS011;18669;53.356;-1.464;2023-03-23T09:46:24;15.38;;;2.40;;
29838;SDS011;18669;53.356;-1.464;2023-03-23T09:49:32;11.38;;;2.30;;
29838;SDS011;18669;53.356;-1.464;2023-03-23T09:55:07;14.60;;;3.05;;
29838;SDS011;18669;53.356;-1.464;2023-03-23T10:01:21;16.30;;;2.20;;
29838;SDS011;18669;53.356;-1.464;2023-03-23T10:07:17;10.93;;;2.40;;
29838;SDS011;18669;53.356;-1.464;2023-03-23T10:10:04;8.68;;;1.83;;
29838;SDS011;18669;53.356;-1.464;2023-03-23T10:15:53;16.80;;;2.72;;
29838;SDS011;18669;53.356;-1.464;2023-03-23T10:18:45;14.65;;;2.88;;
29838;SDS011;18669;53.356;-1.464;2023-03-23T10:21:40;10.18;;;2.35;;
29838;SDS011;18669;53.356;-1.464;2023-03-23T10:24:36;9.32;;;2.15;;
29838;SDS011;18669;53.356;-1.464;2023-03-23T10:27:42;10.70;;;1.92;;
29838;SDS011;18669;53.356;-1.464;2023-03-23T10:30:45;8.10;;;2.03;;
29838;SDS011;18669;53.356;-1.464;2023-03-23T10:33:41;8.95;;;1.98;;
29838;SDS011;18669;53.356;-1.464;2023-03-23T10:36:30;9.35;;;2.20;;
29838;SDS011;18669;53.356;-1.464;2023-03-23T10:39:20;11.27;;;2.38;;
29838;SDS011;18669;53.356;-1.464;2023-03-23T10:42:08;13.48;;;2.50;;
29838;SDS011;18669;53.356;-1.464;2023-03-23T10:44:54;11.65;;;2.42;;
29838;SDS011;18669;53.356;-1.464;2023-03-23T10:50:31;15.73;;;2.70;;
29838;SDS011;18669;53.356;-1.464;2023-03-23T10:53:20;16.35;;;2.40;;
29838;SDS011;18669;53.356;-1.464;2023-03-23T10:56:24;15.02;;;2.15;;
29838;SDS011;18669;53.356;-1.464;2023-03-23T10:59:25;13.93;;;2.80;;
29838;SDS011;18669;53.356;-1.464;2023-03-23T11:02:15;9.65;;;2.42;;
29838;SDS011;18669;53.356;-1.464;2023-03-23T11:05:04;11.73;;;2.22;;
29838;SDS011;18669;53.356;-1.464;2023-03-23T11:07:58;9.82;;;2.40;;
29838;SDS011;18669;53.356;-1.464;2023-03-23T11:10:50;10.70;;;3.08;;
29838;SDS011;18669;53.356;-1.464;2023-03-23T11:13:58;19.77;;;2.75;;
29838;SDS011;18669;53.356;-1.464;2023-03-23T11:17:03;15.48;;;2.63;;
29838;SDS011;18669;53.356;-1.464;2023-03-23T11:19:50;12.77;;;2.67;;
29838;SDS011;18669;53.356;-1.464;2023-03-23T11:22:38;10.50;;;2.05;;
29838;SDS011;18669;53.356;-1.464;2023-03-23T11:25:25;12.88;;;2.42;;
29838;SDS011;18669;53.356;-1.464;2023-03-23T11:28:11;14.18;;;2.80;;
29838;SDS011;18669;53.356;-1.464;2023-03-23T11:30:57;15.20;;;2.33;;
29838;SDS011;18669;53.356;-1.464;2023-03-23T11:36:58;9.95;;;2.10;;
29838;SDS011;18669;53.356;-1.464;2023-03-23T11:45:39;15.95;;;2.40;;
29838;SDS011;18669;53.356;-1.464;2023-03-23T11:51:38;11.55;;;2.10;;
29838;SDS011;18669;53.356;-1.464;2023-03-23T11:54:31;15.13;;;2.40;;
29838;SDS011;18669;53.356;-1.464;2023-03-23T11:57:18;13.25;;;2.17;;
29838;SDS011;18669;53.356;-1.464;2023-03-23T12:06:30;10.57;;;1.98;;
29838;SDS011;18669;53.356;-1.464;2023-03-23T12:21:33;16.42;;;3.35;;
29838;SDS011;18669;53.356;-1.464;2023-03-23T12:27:55;13.00;;;2.35;;
29838;SDS011;18669;53.356;-1.464;2023-03-23T12:31:11;14.02;;;2.45;;
29838;SDS011;18669;53.356;-1.464;2023-03-23T12:43:28;8.63;;;2.00;;
29838;SDS011;18669;53.356;-1.464;2023-03-23T12:52:34;17.25;;;2.50;;
29838;SDS011;18669;53.356;-1.464;2023-03-23T12:55:27;8.25;;;2.15;;
29838;SDS011;18669;53.356;-1.464;2023-03-23T12:58:25;11.35;;;2.30;;
29838;SDS011;18669;53.356;-1.464;2023-03-23T13:04:14;10.15;;;2.40;;
29838;SDS011;18669;53.356;-1.464;2023-03-23T13:07:02;10.02;;;2.20;;
29838;SDS011;18669;53.356;-1.464;2023-03-23T13:12:49;9.90;;;2.17;;
29838;SDS011;18669;53.356;-1.464;2023-03-23T13:18:40;11.95;;;2.20;;
29838;SDS011;18669;53.356;-1.464;2023-03-23T13:27:58;4.95;;;1.23;;
29838;SDS011;18669;53.356;-1.464;2023-03-23T13:30:52;5.82;;;1.65;;
29838;SDS011;18669;53.356;-1.464;2023-03-23T13:33:39;3.53;;;1.20;;
29838;SDS011;18669;53.356;-1.464;2023-03-23T13:36:40;3.30;;;1.08;;
29838;SDS011;18669;53.356;-1.464;2023-03-23T13:39:28;3.08;;;1.02;;
29838;SDS011;18669;53.356;-1.464;2023-03-23T13:45:17;4.93;;;1.60;;
29838;SDS011;18669;53.356;-1.464;2023-03-23T13:48:22;8.68;;;2.03;;
29838;SDS011;18669;53.356;-1.464;2023-03-23T13:54:37;14.90;;;2.35;;
29838;SDS011;18669;53.356;-1.464;2023-03-23T13:57:25;7.60;;;1.95;;
29838;SDS011;18669;53.356;-1.464;2023-03-23T14:00:34;10.32;;;2.08;;
29838;SDS011;18669;53.356;-1.464;2023-03-23T14:06:20;8.55;;;2.20;;
29838;SDS011;18669;53.356;-1.464;2023-03-23T14:09:21;7.35;;;1.73;;
29838;SDS011;18669;53.356;-1.464;2023-03-23T14:12:18;8.40;;;2.00;;
29838;SDS011;18669;53.356;-1.464;2023-03-23T14:15:11;8.45;;;1.98;;
29838;SDS011;18669;53.356;-1.464;2023-03-23T14:17:57;7.80;;;1.88;;
29838;SDS011;18669;53.356;-1.464;2023-03-23T14:20:47;6.40;;;1.60;;
29838;SDS011;18669;53.356;-1.464;2023-03-23T14:23:33;7.03;;;1.88;;
29838;SDS011;18669;53.356;-1.464;2023-03-23T14:26:19;9.82;;;2.05;;
29838;SDS011;18669;53.356;-1.464;2023-03-23T14:29:05;11.57;;;1.92;;
29838;SDS011;18669;53.356;-1.464;2023-03-23T14:31:53;7.00;;;1.90;;
29838;SDS011;18669;53.356;-1.464;2023-03-23T14:34:39;10.35;;;1.95;;
29838;SDS011;18669;53.356;-1.464;2023-03-23T14:37:24;12.80;;;1.75;;
29838;SDS011;18669;53.356;-1.464;2023-03-23T14:40:11;15.90;;;2.00;;
29838;SDS011;18669;53.356;-1.464;2023-03-23T14:43:00;9.65;;;2.08;;
29838;SDS011;18669;53.356;-1.464;2023-03-23T14:45:45;9.05;;;1.80;;
29838;SDS011;18669;53.356;-1.464;2023-03-23T14:48:38;12.35;;;2.13;;
29838;SDS011;18669;53.356;-1.464;2023-03-23T14:51:24;11.25;;;1.95;;
29838;SDS011;18669;53.356;-1.464;2023-03-23T14:54:09;7.22;;;2.10;;
29838;SDS011;18669;53.356;-1.464;2023-03-23T14:56:55;9.38;;;1.73;;
29838;SDS011;18669;53.356;-1.464;2023-03-23T14:59:41;6.53;;;1.95;;
29838;SDS011;18669;53.356;-1.464;2023-03-23T15:02:35;10.60;;;2.00;;
29838;SDS011;18669;53.356;-1.464;2023-03-23T15:05:36;11.93;;;1.80;;
29838;SDS011;18669;53.356;-1.464;2023-03-23T15:08:26;7.15;;;1.88;;
29838;SDS011;18669;53.356;-1.464;2023-03-23T15:14:15;8.23;;;1.63;;
29838;SDS011;18669;53.356;-1.464;2023-03-23T15:17:03;8.25;;;1.70;;
29838;SDS011;18669;53.356;-1.464;2023-03-23T15:19:48;11.00;;;1.70;;
29838;SDS011;18669;53.356;-1.464;2023-03-23T15:22:34;11.82;;;2.08;;
29838;SDS011;18669;53.356;-1.464;2023-03-23T15:28:09;13.30;;;2.17;;
29838;SDS011;18669;53.356;-1.464;2023-03-23T15:31:02;12.18;;;2.10;;
29838;SDS011;18669;53.356;-1.464;2023-03-23T15:33:49;8.98;;;1.90;;
29838;SDS011;18669;53.356;-1.464;2023-03-23T15:36:42;12.57;;;2.08;;
29838;SDS011;18669;53.356;-1.464;2023-03-23T15:39:28;12.10;;;2.53;;
29838;SDS011;18669;53.356;-1.464;2023-03-23T15:42:24;13.48;;;2.00;;
29838;SDS011;18669;53.356;-1.464;2023-03-23T15:50:57;13.35;;;2.10;;
29838;SDS011;18669;53.356;-1.464;2023-03-23T15:53:44;11.52;;;2.08;;
29838;SDS011;18669;53.356;-1.464;2023-03-23T15:56:29;8.40;;;2.30;;
29838;SDS011;18669;53.356;-1.464;2023-03-23T15:59:15;10.02;;;2.15;;
29838;SDS011;18669;53.356;-1.464;2023-03-23T16:02:00;13.05;;;2.15;;
29838;SDS011;18669;53.356;-1.464;2023-03-23T16:04:45;9.75;;;2.38;;
29838;SDS011;18669;53.356;-1.464;2023-03-23T16:07:30;7.47;;;2.28;;
29838;SDS011;18669;53.356;-1.464;2023-03-23T16:10:16;9.60;;;2.42;;
29838;SDS011;18669;53.356;-1.464;2023-03-23T16:13:02;11.52;;;2.28;;
29838;SDS011;18669;53.356;-1.464;2023-03-23T16:15:48;15.13;;;2.97;;
29838;SDS011;18669;53.356;-1.464;2023-03-23T16:18:34;19.30;;;2.78;;
29838;SDS011;18669;53.356;-1.464;2023-03-23T16:21:19;20.60;;;2.65;;
29838;SDS011;18669;53.356;-1.464;2023-03-23T16:24:03;19.73;;;2.90;;
29838;SDS011;18669;53.356;-1.464;2023-03-23T16:26:48;12.27;;;2.72;;
29838;SDS011;18669;53.356;-1.464;2023-03-23T16:29:33;18.13;;;3.08;;
29838;SDS011;18669;53.356;-1.464;2023-03-23T16:32:18;15.18;;;2.70;;
29838;SDS011;18669;53.356;-1.464;2023-03-23T16:35:03;18.38;;;3.30;;
29838;SDS011;18669;53.356;-1.464;2023-03-23T16:37:49;18.13;;;2.85;;
29838;SDS011;18669;53.356;-1.464;2023-03-23T16:40:35;13.35;;;2.30;;
29838;SDS011;18669;53.356;-1.464;2023-03-23T16:43:20;14.00;;;3.33;;
29838;SDS011;18669;53.356;-1.464;2023-03-23T16:46:05;12.32;;;2.45;;
29838;SDS011;18669;53.356;-1.464;2023-03-23T16:48:50;14.35;;;2.67;;
29838;SDS011;18669;53.356;-1.464;2023-03-23T16:51:35;10.77;;;2.97;;
29838;SDS011;18669;53.356;-1.464;2023-03-23T16:54:20;14.70;;;2.72;;
29838;SDS011;18669;53.356;-1.464;2023-03-23T16:57:05;10.32;;;2.85;;
29838;SDS011;18669;53.356;-1.464;2023-03-23T16:59:50;13.07;;;2.25;;
29838;SDS011;18669;53.356;-1.464;2023-03-23T17:02:35;8.98;;;2.05;;
29838;SDS011;18669;53.356;-1.464;2023-03-23T17:05:21;13.38;;;2.58;;
29838;SDS011;18669;53.356;-1.464;2023-03-23T17:08:08;9.45;;;2.30;;
29838;SDS011;18669;53.356;-1.464;2023-03-23T17:10:53;11.75;;;2.28;;
29838;SDS011;18669;53.356;-1.464;2023-03-23T17:13:38;10.25;;;2.53;;
29838;SDS011;18669;53.356;-1.464;2023-03-23T17:16:23;13.63;;;4.65;;
29838;SDS011;18669;53.356;-1.464;2023-03-23T17:19:08;11.20;;;3.00;;
29838;SDS011;18669;53.356;-1.464;2023-03-23T17:21:52;17.00;;;3.70;;
29838;SDS011;18669;53.356;-1.464;2023-03-23T17:24:37;17.85;;;3.50;;
29838;SDS011;18669;53.356;-1.464;2023-03-23T17:27:22;19.02;;;3.60;;
29838;SDS011;18669;53.356;-1.464;2023-03-23T17:30:08;13.73;;;2.72;;
29838;SDS011;18669;53.356;-1.464;2023-03-23T17:32:54;13.98;;;2.67;;
29838;SDS011;18669;53.356;-1.464;2023-03-23T17:35:39;14.52;;;2.78;;
29838;SDS011;18669;53.356;-1.464;2023-03-23T17:38:25;12.30;;;3.23;;
29838;SDS011;18669;53.356;-1.464;2023-03-23T17:41:10;15.88;;;2.95;;
29838;SDS011;18669;53.356;-1.464;2023-03-23T17:43:56;16.23;;;3.00;;
29838;SDS011;18669;53.356;-1.464;2023-03-23T17:46:41;15.63;;;3.05;;
29838;SDS011;18669;53.356;-1.464;2023-03-23T17:49:26;11.32;;;2.70;;
29838;SDS011;18669;53.356;-1.464;2023-03-23T17:52:13;17.33;;;3.55;;
29838;SDS011;18669;53.356;-1.464;2023-03-23T17:54:58;13.30;;;3.08;;
29838;SDS011;18669;53.356;-1.464;2023-03-23T17:57:43;16.48;;;2.78;;
29838;SDS011;18669;53.356;-1.464;2023-03-23T18:00:28;9.30;;;2.08;;
29838;SDS011;18669;53.356;-1.464;2023-03-23T18:03:13;12.80;;;2.33;;
29838;SDS011;18669;53.356;-1.464;2023-03-23T18:05:58;13.35;;;2.70;;
29838;SDS011;18669;53.356;-1.464;2023-03-23T18:08:44;15.82;;;2.78;;
29838;SDS011;18669;53.356;-1.464;2023-03-23T18:11:29;12.90;;;2.40;;
29838;SDS011;18669;53.356;-1.464;2023-03-23T18:14:14;11.38;;;3.17;;
29838;SDS011;18669;53.356;-1.464;2023-03-23T18:16:59;11.40;;;2.63;;
29838;SDS011;18669;53.356;-1.464;2023-03-23T18:19:44;15.48;;;2.40;;
29838;SDS011;18669;53.356;-1.464;2023-03-23T18:22:29;7.90;;;2.15;;
29838;SDS011;18669;53.356;-1.464;2023-03-23T18:25:14;12.23;;;2.53;;
29838;SDS011;18669;53.356;-1.464;2023-03-23T18:27:59;13.57;;;2.40;;
29838;SDS011;18669;53.356;-1.464;2023-03-23T18:30:44;10.35;;;2.22;;
29838;SDS011;18669;53.356;-1.464;2023-03-23T18:33:32;9.75;;;2.97;;
29838;SDS011;18669;53.356;-1.464;2023-03-23T18:36:22;8.88;;;1.60;;
29838;SDS011;18669;53.356;-1.464;2023-03-23T18:39:08;8.00;;;2.42;;
29838;SDS011;18669;53.356;-1.464;2023-03-23T18:41:55;5.10;;;2.33;;